createdAt,value
2019-01-06T00:00:19.020Z,1020.01
2019-01-06T00:01:18.984Z,1019.98
2019-01-06T00:02:18.965Z,1019.94
2019-01-06T00:03:18.935Z,1019.96
2019-01-06T00:04:18.922Z,1019.91
2019-01-06T00:05:18.895Z,1019.95
2019-01-06T00:06:18.869Z,1019.92
2019-01-06T00:07:18.848Z,1019.94
2019-01-06T00:08:18.831Z,1019.94
2019-01-06T00:09:18.801Z,1019.98
2019-01-06T00:10:18.778Z,1019.95
2019-01-06T00:11:18.755Z,1019.92
2019-01-06T00:12:18.741Z,1019.94
2019-01-06T00:13:18.716Z,1019.95
2019-01-06T00:14:18.686Z,1020.02
2019-01-06T00:15:18.680Z,1020.01
2019-01-06T00:16:18.741Z,1020.01
2019-01-06T00:17:18.623Z,1019.99
2019-01-06T00:18:18.600Z,1020.01
2019-01-06T00:19:18.577Z,1020.04
2019-01-06T00:20:18.549Z,1020.07
2019-01-06T00:21:18.528Z,1020.07
2019-01-06T00:22:18.510Z,1020.05
2019-01-06T00:23:18.483Z,1020.07
2019-01-06T00:24:18.470Z,1020.07
2019-01-06T00:25:18.439Z,1020.06
2019-01-06T00:26:18.416Z,1020.04
2019-01-06T00:27:18.397Z,1020.06
2019-01-06T00:28:18.366Z,1020.08
2019-01-06T00:29:18.346Z,1020.09
2019-01-06T00:30:18.326Z,1020.05
2019-01-06T00:31:18.305Z,1020.09
2019-01-06T00:32:18.282Z,1020.10
2019-01-06T00:33:18.258Z,1020.11
2019-01-06T00:34:18.236Z,1020.12
2019-01-06T00:35:18.215Z,1020.11
2019-01-06T00:36:18.187Z,1020.09
2019-01-06T00:37:18.165Z,1020.14
2019-01-06T00:38:18.150Z,1020.11
2019-01-06T00:39:18.128Z,1020.18
2019-01-06T00:40:18.094Z,1020.14
2019-01-06T00:41:18.077Z,1020.21
2019-01-06T00:42:18.054Z,1020.21
2019-01-06T00:43:18.036Z,1020.19
2019-01-06T00:44:18.012Z,1020.19
2019-01-06T00:45:17.982Z,1020.21
2019-01-06T00:46:17.963Z,1020.20
2019-01-06T00:47:17.942Z,1020.17
2019-01-06T00:48:17.914Z,1020.19
2019-01-06T00:49:17.894Z,1020.13
2019-01-06T00:50:17.867Z,1020.09
2019-01-06T00:51:17.844Z,1020.15
2019-01-06T00:52:17.826Z,1020.18
2019-01-06T00:53:17.806Z,1020.12
2019-01-06T00:54:17.781Z,1020.15
2019-01-06T00:55:17.758Z,1020.14
2019-01-06T00:56:17.736Z,1020.13
2019-01-06T00:57:17.715Z,1020.11
2019-01-06T00:58:17.688Z,1020.11
2019-01-06T00:59:17.664Z,1020.11
2019-01-06T01:00:17.647Z,1020.09
2019-01-06T01:01:17.622Z,1020.13
2019-01-06T01:02:17.594Z,1020.15
2019-01-06T01:03:17.574Z,1020.14
2019-01-06T01:04:17.552Z,1020.10
2019-01-06T01:05:17.530Z,1020.12
2019-01-06T01:06:17.508Z,1020.12
2019-01-06T01:07:17.487Z,1020.14
2019-01-06T01:08:17.466Z,1020.15
2019-01-06T01:09:17.437Z,1020.12
2019-01-06T01:10:17.414Z,1020.11
2019-01-06T01:11:17.392Z,1020.17
2019-01-06T01:12:17.372Z,1020.17
2019-01-06T01:13:17.348Z,1020.13
2019-01-06T01:14:17.326Z,1020.20
2019-01-06T01:15:17.302Z,1020.18
2019-01-06T01:16:17.285Z,1020.18
2019-01-06T01:17:17.262Z,1020.23
2019-01-06T01:18:17.234Z,1020.17
2019-01-06T01:19:17.208Z,1020.21
2019-01-06T01:20:17.238Z,1020.22
2019-01-06T01:21:17.164Z,1020.26
2019-01-06T01:22:17.145Z,1020.30
2019-01-06T01:23:17.116Z,1020.31
2019-01-06T01:24:17.098Z,1020.32
2019-01-06T01:25:17.082Z,1020.36
2019-01-06T01:26:17.122Z,1020.37
2019-01-06T01:27:17.028Z,1020.42
2019-01-06T01:28:17.004Z,1020.45
2019-01-06T01:29:16.985Z,1020.42
2019-01-06T01:30:16.958Z,1020.46
2019-01-06T01:31:16.939Z,1020.44
2019-01-06T01:32:16.914Z,1020.45
2019-01-06T01:33:16.890Z,1020.45
2019-01-06T01:34:16.877Z,1020.49
2019-01-06T01:35:16.847Z,1020.52
2019-01-06T01:36:16.819Z,1020.50
2019-01-06T01:37:16.805Z,1020.48
2019-01-06T01:38:16.779Z,1020.52
2019-01-06T01:39:16.753Z,1020.48
2019-01-06T01:40:16.731Z,1020.47
2019-01-06T01:41:16.707Z,1020.49
2019-01-06T01:42:16.686Z,1020.50
2019-01-06T01:43:16.660Z,1020.56
2019-01-06T01:44:16.640Z,1020.54
2019-01-06T01:45:16.711Z,1020.54
2019-01-06T01:46:16.594Z,1020.55
2019-01-06T01:47:16.570Z,1020.58
2019-01-06T01:48:16.543Z,1020.55
2019-01-06T01:49:16.526Z,1020.60
2019-01-06T01:50:16.497Z,1020.64
2019-01-06T01:51:16.478Z,1020.60
2019-01-06T01:52:16.459Z,1020.69
2019-01-06T01:53:16.432Z,1020.67
2019-01-06T01:54:16.409Z,1020.64
2019-01-06T01:55:16.385Z,1020.64
2019-01-06T01:56:16.365Z,1020.67
2019-01-06T01:57:16.348Z,1020.66
2019-01-06T01:58:16.321Z,1020.65
2019-01-06T01:59:16.293Z,1020.66
2019-01-06T02:00:16.270Z,1020.66
2019-01-06T02:01:16.245Z,1020.68
2019-01-06T02:02:16.227Z,1020.71
2019-01-06T02:03:16.205Z,1020.71
2019-01-06T02:04:16.185Z,1020.75
2019-01-06T02:05:16.153Z,1020.78
2019-01-06T02:06:16.135Z,1020.75
2019-01-06T02:07:16.111Z,1020.80
2019-01-06T02:08:16.088Z,1020.77
2019-01-06T02:09:16.061Z,1020.76
2019-01-06T02:10:16.040Z,1020.80
2019-01-06T02:11:16.019Z,1020.80
2019-01-06T02:12:15.997Z,1020.79
2019-01-06T02:13:15.971Z,1020.81
2019-01-06T02:14:15.950Z,1020.82
2019-01-06T02:15:15.927Z,1020.83
2019-01-06T02:16:15.899Z,1020.84
2019-01-06T02:17:15.888Z,1020.88
2019-01-06T02:18:15.855Z,1020.86
2019-01-06T02:19:15.833Z,1020.83
2019-01-06T02:20:15.811Z,1020.87
2019-01-06T02:21:15.789Z,1020.92
2019-01-06T02:22:15.765Z,1020.91
2019-01-06T02:23:15.739Z,1020.92
2019-01-06T02:24:15.716Z,1020.93
2019-01-06T02:25:15.699Z,1020.92
2019-01-06T02:26:15.669Z,1020.88
2019-01-06T02:27:15.645Z,1020.87
2019-01-06T02:28:15.627Z,1020.91
2019-01-06T02:29:15.601Z,1020.87
2019-01-06T02:30:15.583Z,1020.85
2019-01-06T02:31:15.555Z,1020.87
2019-01-06T02:32:15.535Z,1020.90
2019-01-06T02:33:15.509Z,1020.86
2019-01-06T02:34:15.489Z,1020.85
2019-01-06T02:35:15.460Z,1020.93
2019-01-06T02:36:15.442Z,1020.90
2019-01-06T02:37:15.418Z,1020.95
2019-01-06T02:38:15.397Z,1020.93
2019-01-06T02:39:15.375Z,1020.99
2019-01-06T02:40:15.355Z,1020.97
2019-01-06T02:41:15.326Z,1021.01
2019-01-06T02:42:15.301Z,1021.00
2019-01-06T02:43:15.279Z,1021.03
2019-01-06T02:44:15.259Z,1021.03
2019-01-06T02:45:15.233Z,1021.02
2019-01-06T02:46:15.207Z,1020.98
2019-01-06T02:47:15.191Z,1021.06
2019-01-06T02:48:15.164Z,1021.07
2019-01-06T02:49:15.139Z,1021.05
2019-01-06T02:50:15.116Z,1021.06
2019-01-06T02:51:15.096Z,1021.05
2019-01-06T02:52:15.074Z,1021.07
2019-01-06T02:53:15.048Z,1021.08
2019-01-06T02:54:15.023Z,1021.07
2019-01-06T02:55:15.000Z,1021.05
2019-01-06T02:56:14.980Z,1021.09
2019-01-06T02:57:14.960Z,1021.02
2019-01-06T02:58:14.949Z,1021.09
2019-01-06T02:59:14.906Z,1021.09
2019-01-06T03:00:14.888Z,1021.11
2019-01-06T03:01:14.863Z,1021.10
2019-01-06T03:02:14.845Z,1021.14
2019-01-06T03:03:14.822Z,1021.15
2019-01-06T03:04:14.795Z,1021.12
2019-01-06T03:05:14.781Z,1021.08
2019-01-06T03:06:14.749Z,1021.09
2019-01-06T03:07:14.723Z,1021.06
2019-01-06T03:08:14.707Z,1021.07
2019-01-06T03:09:14.679Z,1021.10
2019-01-06T03:10:14.656Z,1021.12
2019-01-06T03:11:14.632Z,1021.13
2019-01-06T03:12:14.609Z,1021.16
2019-01-06T03:13:14.588Z,1021.11
2019-01-06T03:14:14.553Z,1021.12
2019-01-06T03:15:14.538Z,1021.12
2019-01-06T03:16:14.521Z,1021.11
2019-01-06T03:17:14.496Z,1021.13
2019-01-06T03:18:14.472Z,1021.13
2019-01-06T03:19:14.447Z,1021.17
2019-01-06T03:20:14.426Z,1021.13
2019-01-06T03:21:14.405Z,1021.04
2019-01-06T03:22:14.382Z,1021.06
2019-01-06T03:23:14.363Z,1021.08
2019-01-06T03:24:14.336Z,1021.09
2019-01-06T03:25:14.313Z,1021.09
2019-01-06T03:26:14.282Z,1021.11
2019-01-06T03:27:14.261Z,1021.08
2019-01-06T03:28:14.245Z,1021.05
2019-01-06T03:29:14.872Z,1021.06
2019-01-06T03:30:14.197Z,1021.07
2019-01-06T03:31:14.176Z,1021.11
2019-01-06T03:32:14.146Z,1021.09
2019-01-06T03:33:14.133Z,1021.02
2019-01-06T03:34:14.129Z,1021.05
2019-01-06T03:35:14.080Z,1021.09
2019-01-06T03:36:14.056Z,1021.08
2019-01-06T03:37:14.033Z,1021.06
2019-01-06T03:38:14.011Z,1021.07
2019-01-06T03:39:13.988Z,1021.08
2019-01-06T03:40:13.965Z,1021.05
2019-01-06T03:41:13.941Z,1021.05
2019-01-06T03:42:13.918Z,1021.02
2019-01-06T03:43:13.890Z,1021.01
2019-01-06T03:44:13.874Z,1021.02
2019-01-06T03:45:13.846Z,1021.07
2019-01-06T03:46:13.826Z,1021.04
2019-01-06T03:47:13.808Z,1021.05
2019-01-06T03:48:13.784Z,1021.07
2019-01-06T03:49:13.758Z,1021.06
2019-01-06T03:50:13.731Z,1021.03
2019-01-06T03:51:13.708Z,1021.08
2019-01-06T03:52:13.685Z,1021.12
2019-01-06T03:53:13.669Z,1021.10
2019-01-06T03:54:13.643Z,1021.13
2019-01-06T03:55:13.622Z,1021.15
2019-01-06T03:56:13.592Z,1021.14
2019-01-06T03:57:13.575Z,1021.16
2019-01-06T03:58:13.549Z,1021.18
2019-01-06T03:59:13.526Z,1021.21
2019-01-06T04:00:13.504Z,1021.21
2019-01-06T04:01:13.481Z,1021.22
2019-01-06T04:02:13.458Z,1021.20
2019-01-06T04:03:13.431Z,1021.27
2019-01-06T04:04:13.408Z,1021.18
2019-01-06T04:05:13.387Z,1021.22
2019-01-06T04:06:13.360Z,1021.23
2019-01-06T04:07:13.338Z,1021.26
2019-01-06T04:08:13.320Z,1021.24
2019-01-06T04:09:13.298Z,1021.27
2019-01-06T04:10:13.306Z,1021.22
2019-01-06T04:11:15.344Z,1021.27
2019-01-06T04:12:13.230Z,1021.31
2019-01-06T04:13:13.204Z,1021.29
2019-01-06T04:14:13.178Z,1021.29
2019-01-06T04:15:13.165Z,1021.32
2019-01-06T04:16:13.140Z,1021.35
2019-01-06T04:17:13.111Z,1021.30
2019-01-06T04:18:13.084Z,1021.29
2019-01-06T04:19:13.069Z,1021.31
2019-01-06T04:20:13.038Z,1021.34
2019-01-06T04:21:13.021Z,1021.30
2019-01-06T04:22:12.999Z,1021.32
2019-01-06T04:23:12.973Z,1021.33
2019-01-06T04:24:12.951Z,1021.30
2019-01-06T04:25:12.935Z,1021.28
2019-01-06T04:26:12.903Z,1021.33
2019-01-06T04:27:12.882Z,1021.28
2019-01-06T04:28:12.857Z,1021.33
2019-01-06T04:29:12.836Z,1021.32
2019-01-06T04:30:12.814Z,1021.28
2019-01-06T04:31:12.785Z,1021.29
2019-01-06T04:32:12.764Z,1021.26
2019-01-06T04:33:12.741Z,1021.26
2019-01-06T04:34:12.720Z,1021.30
2019-01-06T04:35:12.697Z,1021.30
2019-01-06T04:36:12.689Z,1021.30
2019-01-06T04:37:12.652Z,1021.31
2019-01-06T04:38:12.621Z,1021.28
2019-01-06T04:39:12.607Z,1021.29
2019-01-06T04:40:12.580Z,1021.29
2019-01-06T04:41:12.555Z,1021.30
2019-01-06T04:42:12.532Z,1021.26
2019-01-06T04:43:12.508Z,1021.29
2019-01-06T04:44:12.493Z,1021.27
2019-01-06T04:45:12.465Z,1021.28
2019-01-06T04:46:12.444Z,1021.28
2019-01-06T04:47:12.418Z,1021.26
2019-01-06T04:48:12.389Z,1021.33
2019-01-06T04:49:12.377Z,1021.31
2019-01-06T04:50:12.358Z,1021.30
2019-01-06T04:51:12.323Z,1021.32
2019-01-06T04:52:12.301Z,1021.29
2019-01-06T04:53:12.279Z,1021.28
2019-01-06T04:54:12.258Z,1021.31
2019-01-06T04:55:12.231Z,1021.31
2019-01-06T04:56:12.211Z,1021.33
2019-01-06T04:57:12.186Z,1021.30
2019-01-06T04:58:12.159Z,1021.33
2019-01-06T04:59:12.137Z,1021.35
2019-01-06T05:00:12.144Z,1021.33
2019-01-06T05:01:12.095Z,1021.35
2019-01-06T05:02:12.071Z,1021.35
2019-01-06T05:03:12.046Z,1021.38
2019-01-06T05:04:12.019Z,1021.38
2019-01-06T05:05:12.001Z,1021.38
2019-01-06T05:06:11.979Z,1021.38
2019-01-06T05:07:11.956Z,1021.40
2019-01-06T05:08:11.931Z,1021.41
2019-01-06T05:09:11.911Z,1021.41
2019-01-06T05:10:11.881Z,1021.40
2019-01-06T05:11:11.865Z,1021.38
2019-01-06T05:12:11.839Z,1021.35
2019-01-06T05:13:11.818Z,1021.38
2019-01-06T05:14:11.795Z,1021.40
2019-01-06T05:15:11.772Z,1021.33
2019-01-06T05:16:11.748Z,1021.39
2019-01-06T05:17:11.721Z,1021.42
2019-01-06T05:18:11.702Z,1021.42
2019-01-06T05:19:11.677Z,1021.43
2019-01-06T05:20:11.658Z,1021.41
2019-01-06T05:21:11.629Z,1021.45
2019-01-06T05:22:11.609Z,1021.48
2019-01-06T05:23:11.593Z,1021.46
2019-01-06T05:24:11.635Z,1021.50
2019-01-06T05:25:11.531Z,1021.48
2019-01-06T05:26:11.516Z,1021.55
2019-01-06T05:27:11.588Z,1021.44
2019-01-06T05:28:11.462Z,1021.42
2019-01-06T05:29:11.443Z,1021.39
2019-01-06T05:30:11.420Z,1021.39
2019-01-06T05:31:11.394Z,1021.44
2019-01-06T05:32:11.370Z,1021.46
2019-01-06T05:33:11.347Z,1021.49
2019-01-06T05:34:11.326Z,1021.50
2019-01-06T05:35:11.301Z,1021.57
2019-01-06T05:36:11.278Z,1021.53
2019-01-06T05:37:11.253Z,1021.56
2019-01-06T05:38:11.236Z,1021.52
2019-01-06T05:39:11.208Z,1021.56
2019-01-06T05:40:11.187Z,1021.56
2019-01-06T05:41:11.170Z,1021.55
2019-01-06T05:42:11.138Z,1021.61
2019-01-06T05:43:11.114Z,1021.63
2019-01-06T05:44:11.096Z,1021.60
2019-01-06T05:45:11.079Z,1021.67
2019-01-06T05:46:11.049Z,1021.60
2019-01-06T05:47:11.021Z,1021.63
2019-01-06T05:48:11.004Z,1021.69
2019-01-06T05:49:10.974Z,1021.74
2019-01-06T05:50:10.952Z,1021.67
2019-01-06T05:51:10.928Z,1021.73
2019-01-06T05:52:10.903Z,1021.75
2019-01-06T05:53:10.880Z,1021.78
2019-01-06T05:54:10.859Z,1021.80
2019-01-06T05:55:10.838Z,1021.82
2019-01-06T05:56:10.808Z,1021.80
2019-01-06T05:57:10.788Z,1021.85
2019-01-06T05:58:10.770Z,1021.81
2019-01-06T05:59:10.745Z,1021.87
2019-01-06T06:00:10.722Z,1021.82
2019-01-06T06:01:10.696Z,1021.87
2019-01-06T06:02:10.671Z,1021.90
2019-01-06T06:03:10.646Z,1021.89
2019-01-06T06:04:10.626Z,1021.93
2019-01-06T06:05:10.605Z,1021.97
2019-01-06T06:06:10.578Z,1021.95
2019-01-06T06:07:11.433Z,1021.92
2019-01-06T06:08:10.531Z,1021.97
2019-01-06T06:09:10.507Z,1021.99
2019-01-06T06:10:10.482Z,1021.98
2019-01-06T06:11:10.462Z,1021.99
2019-01-06T06:12:10.436Z,1022.04
2019-01-06T06:13:10.414Z,1022.03
2019-01-06T06:14:10.390Z,1022.03
2019-01-06T06:15:10.374Z,1022.02
2019-01-06T06:16:10.342Z,1022.02
2019-01-06T06:17:10.329Z,1022.04
2019-01-06T06:18:10.296Z,1022.02
2019-01-06T06:19:10.275Z,1022.03
2019-01-06T06:20:10.250Z,1022.08
2019-01-06T06:21:10.230Z,1022.07
2019-01-06T06:22:10.282Z,1022.11
2019-01-06T06:23:10.184Z,1022.18
2019-01-06T06:24:10.156Z,1022.18
2019-01-06T06:25:10.144Z,1022.21
2019-01-06T06:26:10.110Z,1022.21
2019-01-06T06:27:10.090Z,1022.23
2019-01-06T06:28:10.132Z,1022.22
2019-01-06T06:29:10.042Z,1022.22
2019-01-06T06:30:10.022Z,1022.23
2019-01-06T06:31:10.002Z,1022.22
2019-01-06T06:32:09.975Z,1022.21
2019-01-06T06:33:09.946Z,1022.22
2019-01-06T06:34:09.936Z,1022.24
2019-01-06T06:35:09.901Z,1022.22
2019-01-06T06:36:09.879Z,1022.24
2019-01-06T06:37:09.857Z,1022.25
2019-01-06T06:38:09.835Z,1022.26
2019-01-06T06:39:09.807Z,1022.29
2019-01-06T06:40:09.784Z,1022.29
2019-01-06T06:41:09.760Z,1022.32
2019-01-06T06:42:09.734Z,1022.31
2019-01-06T06:43:09.713Z,1022.28
2019-01-06T06:44:09.695Z,1022.33
2019-01-06T06:45:09.670Z,1022.36
2019-01-06T06:46:09.641Z,1022.35
2019-01-06T06:47:09.621Z,1022.32
2019-01-06T06:48:09.604Z,1022.37
2019-01-06T06:49:09.575Z,1022.35
2019-01-06T06:50:09.556Z,1022.37
2019-01-06T06:51:09.528Z,1022.38
2019-01-06T06:52:09.509Z,1022.39
2019-01-06T06:53:09.482Z,1022.43
2019-01-06T06:54:09.461Z,1022.38
2019-01-06T06:55:09.453Z,1022.42
2019-01-06T06:56:09.416Z,1022.36
2019-01-06T06:57:09.393Z,1022.37
2019-01-06T06:58:09.371Z,1022.51
2019-01-06T06:59:09.339Z,1022.49
2019-01-06T07:00:09.320Z,1022.50
2019-01-06T07:01:09.295Z,1022.51
2019-01-06T07:02:09.270Z,1022.49
2019-01-06T07:03:09.247Z,1022.49
2019-01-06T07:04:09.227Z,1022.49
2019-01-06T07:05:09.206Z,1022.52
2019-01-06T07:06:09.182Z,1022.49
2019-01-06T07:07:09.158Z,1022.45
2019-01-06T07:08:09.134Z,1022.55
2019-01-06T07:09:09.110Z,1022.60
2019-01-06T07:10:09.089Z,1022.57
2019-01-06T07:11:09.072Z,1022.54
2019-01-06T07:12:09.047Z,1022.62
2019-01-06T07:13:09.019Z,1022.62
2019-01-06T07:14:08.996Z,1022.66
2019-01-06T07:15:08.979Z,1022.68
2019-01-06T07:16:08.950Z,1022.65
2019-01-06T07:17:08.932Z,1022.63
2019-01-06T07:18:08.905Z,1022.66
2019-01-06T07:19:08.882Z,1022.65
2019-01-06T07:20:08.855Z,1022.71
2019-01-06T07:21:08.834Z,1022.66
2019-01-06T07:22:08.809Z,1022.71
2019-01-06T07:23:08.787Z,1022.68
2019-01-06T07:24:08.838Z,1022.73
2019-01-06T07:25:08.741Z,1022.73
2019-01-06T07:26:08.716Z,1022.73
2019-01-06T07:27:08.693Z,1022.77
2019-01-06T07:28:08.670Z,1022.76
2019-01-06T07:29:08.647Z,1022.79
2019-01-06T07:30:08.621Z,1022.82
2019-01-06T07:31:08.603Z,1022.80
2019-01-06T07:32:08.581Z,1022.79
2019-01-06T07:33:08.551Z,1022.80
2019-01-06T07:34:08.527Z,1022.82
2019-01-06T07:35:08.511Z,1022.85
2019-01-06T07:36:08.484Z,1022.83
2019-01-06T07:37:08.471Z,1022.86
2019-01-06T07:38:08.440Z,1022.87
2019-01-06T07:39:08.417Z,1022.84
2019-01-06T07:40:08.393Z,1022.86
2019-01-06T07:41:08.370Z,1022.87
2019-01-06T07:42:08.346Z,1022.88
2019-01-06T07:43:08.321Z,1022.89
2019-01-06T07:44:08.299Z,1022.99
2019-01-06T07:45:08.279Z,1022.96
2019-01-06T07:46:08.259Z,1023.02
2019-01-06T07:47:08.229Z,1022.94
2019-01-06T07:48:08.205Z,1022.96
2019-01-06T07:49:08.183Z,1022.97
2019-01-06T07:50:08.159Z,1022.99
2019-01-06T07:51:08.137Z,1023.01
2019-01-06T07:52:08.118Z,1022.98
2019-01-06T07:53:08.089Z,1023.00
2019-01-06T07:54:08.066Z,1023.04
2019-01-06T07:55:08.044Z,1023.06
2019-01-06T07:56:08.018Z,1023.00
2019-01-06T07:57:08.005Z,1023.08
2019-01-06T07:58:07.981Z,1023.05
2019-01-06T07:59:07.955Z,1023.08
2019-01-06T08:00:15.262Z,1023.04
2019-01-06T08:01:07.905Z,1023.04
2019-01-06T08:02:07.883Z,1023.10
2019-01-06T08:03:07.859Z,1023.10
2019-01-06T08:04:07.837Z,1023.09
2019-01-06T08:05:07.810Z,1023.12
2019-01-06T08:06:07.787Z,1023.13
2019-01-06T08:07:07.765Z,1023.13
2019-01-06T08:08:07.739Z,1023.16
2019-01-06T08:09:07.723Z,1023.18
2019-01-06T08:10:07.697Z,1023.18
2019-01-06T08:11:07.675Z,1023.17
2019-01-06T08:12:07.647Z,1023.18
2019-01-06T08:13:07.627Z,1023.21
2019-01-06T08:14:07.601Z,1023.22
2019-01-06T08:15:07.579Z,1023.18
2019-01-06T08:16:07.556Z,1023.22
2019-01-06T08:17:07.533Z,1023.20
2019-01-06T08:18:07.508Z,1023.23
2019-01-06T08:19:07.496Z,1023.23
2019-01-06T08:20:07.463Z,1023.20
2019-01-06T08:21:07.443Z,1023.19
2019-01-06T08:22:07.421Z,1023.15
2019-01-06T08:23:07.397Z,1023.18
2019-01-06T08:24:07.375Z,1023.21
2019-01-06T08:25:07.349Z,1023.16
2019-01-06T08:26:07.328Z,1023.14
2019-01-06T08:27:07.308Z,1023.11
2019-01-06T08:28:07.277Z,1023.12
2019-01-06T08:29:07.258Z,1023.16
2019-01-06T08:30:07.228Z,1023.18
2019-01-06T08:31:07.212Z,1023.18
2019-01-06T08:32:07.185Z,1023.22
2019-01-06T08:33:07.167Z,1023.23
2019-01-06T08:34:07.141Z,1023.26
2019-01-06T08:35:07.115Z,1023.24
2019-01-06T08:36:07.095Z,1023.27
2019-01-06T08:37:07.073Z,1023.28
2019-01-06T08:38:07.049Z,1023.28
2019-01-06T08:39:07.030Z,1023.27
2019-01-06T08:40:07.004Z,1023.29
2019-01-06T08:41:06.980Z,1023.32
2019-01-06T08:42:06.955Z,1023.35
2019-01-06T08:43:06.930Z,1023.34
2019-01-06T08:44:06.909Z,1023.35
2019-01-06T08:45:06.892Z,1023.35
2019-01-06T08:46:06.864Z,1023.33
2019-01-06T08:47:06.843Z,1023.36
2019-01-06T08:48:06.824Z,1023.33
2019-01-06T08:49:06.798Z,1023.39
2019-01-06T08:50:06.774Z,1023.42
2019-01-06T08:51:06.752Z,1023.44
2019-01-06T08:52:06.730Z,1023.46
2019-01-06T08:53:06.708Z,1023.45
2019-01-06T08:54:06.685Z,1023.50
2019-01-06T08:55:06.662Z,1023.48
2019-01-06T08:56:06.637Z,1023.50
2019-01-06T08:57:06.616Z,1023.49
2019-01-06T08:58:06.590Z,1023.56
2019-01-06T08:59:06.569Z,1023.49
2019-01-06T09:00:06.549Z,1023.52
2019-01-06T09:01:06.531Z,1023.53
2019-01-06T09:02:06.504Z,1023.51
2019-01-06T09:03:06.478Z,1023.50
2019-01-06T09:04:06.458Z,1023.52
2019-01-06T09:05:06.437Z,1023.57
2019-01-06T09:06:06.417Z,1023.54
2019-01-06T09:07:06.398Z,1023.57
2019-01-06T09:08:06.367Z,1023.56
2019-01-06T09:09:06.344Z,1023.58
2019-01-06T09:10:06.322Z,1023.59
2019-01-06T09:11:06.297Z,1023.58
2019-01-06T09:12:06.285Z,1023.58
2019-01-06T09:13:06.254Z,1023.61
2019-01-06T09:14:06.229Z,1023.60
2019-01-06T09:15:06.212Z,1023.62
2019-01-06T09:16:06.192Z,1023.64
2019-01-06T09:17:06.174Z,1023.67
2019-01-06T09:18:06.140Z,1023.65
2019-01-06T09:19:06.118Z,1023.63
2019-01-06T09:20:06.099Z,1023.70
2019-01-06T09:21:06.070Z,1023.65
2019-01-06T09:22:06.054Z,1023.58
2019-01-06T09:23:06.031Z,1023.62
2019-01-06T09:24:06.006Z,1023.60
2019-01-06T09:25:05.987Z,1023.59
2019-01-06T09:26:05.960Z,1023.55
2019-01-06T09:27:05.935Z,1023.63
2019-01-06T09:28:05.921Z,1023.57
2019-01-06T09:29:05.896Z,1023.59
2019-01-06T09:30:05.877Z,1023.58
2019-01-06T09:31:05.850Z,1023.60
2019-01-06T09:32:05.826Z,1023.58
2019-01-06T09:33:05.809Z,1023.53
2019-01-06T09:34:05.782Z,1023.52
2019-01-06T09:35:05.761Z,1023.50
2019-01-06T09:36:05.745Z,1023.54
2019-01-06T09:37:05.714Z,1023.53
2019-01-06T09:38:05.694Z,1023.51
2019-01-06T09:39:05.678Z,1023.55
2019-01-06T09:40:05.645Z,1023.55
2019-01-06T09:41:05.631Z,1023.50
2019-01-06T09:42:05.603Z,1023.54
2019-01-06T09:43:05.583Z,1023.53
2019-01-06T09:44:05.559Z,1023.53
2019-01-06T09:45:05.538Z,1023.55
2019-01-06T09:46:05.525Z,1023.61
2019-01-06T09:47:05.495Z,1023.57
2019-01-06T09:48:05.469Z,1023.59
2019-01-06T09:49:05.451Z,1023.57
2019-01-06T09:50:05.430Z,1023.63
2019-01-06T09:51:05.401Z,1023.59
2019-01-06T09:52:05.383Z,1023.59
2019-01-06T09:53:05.367Z,1023.59
2019-01-06T09:54:05.341Z,1023.57
2019-01-06T09:55:05.318Z,1023.59
2019-01-06T09:56:05.295Z,1023.58
2019-01-06T09:57:05.272Z,1023.55
2019-01-06T09:58:05.247Z,1023.60
2019-01-06T09:59:05.231Z,1023.60
2019-01-06T10:00:05.211Z,1023.61
2019-01-06T10:01:05.190Z,1023.61
2019-01-06T10:02:05.165Z,1023.56
2019-01-06T10:03:05.141Z,1023.59
2019-01-06T10:04:05.118Z,1023.58
2019-01-06T10:05:05.104Z,1023.60
2019-01-06T10:06:05.071Z,1023.59
2019-01-06T10:07:05.047Z,1023.56
2019-01-06T10:08:06.956Z,1023.60
2019-01-06T10:09:05.005Z,1023.53
2019-01-06T10:10:04.989Z,1023.53
2019-01-06T10:11:04.968Z,1023.52
2019-01-06T10:12:04.944Z,1023.52
2019-01-06T10:13:04.922Z,1023.54
2019-01-06T10:14:04.894Z,1023.60
2019-01-06T10:15:04.875Z,1023.66
2019-01-06T10:16:04.849Z,1023.57
2019-01-06T10:17:04.828Z,1023.62
2019-01-06T10:18:04.807Z,1023.61
2019-01-06T10:19:04.788Z,1023.65
2019-01-06T10:20:04.769Z,1023.65
2019-01-06T10:21:04.743Z,1023.64
2019-01-06T10:22:04.716Z,1023.65
2019-01-06T10:23:04.698Z,1023.67
2019-01-06T10:24:04.671Z,1023.62
2019-01-06T10:25:04.651Z,1023.59
2019-01-06T10:26:04.625Z,1023.61
2019-01-06T10:27:04.607Z,1023.54
2019-01-06T10:28:04.586Z,1023.61
2019-01-06T10:29:04.567Z,1023.60
2019-01-06T10:30:04.545Z,1023.59
2019-01-06T10:31:04.515Z,1023.60
2019-01-06T10:32:04.498Z,1023.62
2019-01-06T10:33:04.477Z,1023.64
2019-01-06T10:34:04.451Z,1023.64
2019-01-06T10:35:04.427Z,1023.60
2019-01-06T10:36:04.405Z,1023.61
2019-01-06T10:37:04.391Z,1023.61
2019-01-06T10:38:04.371Z,1023.64
2019-01-06T10:39:04.341Z,1023.59
2019-01-06T10:40:04.320Z,1023.56
2019-01-06T10:41:04.301Z,1023.55
2019-01-06T10:42:04.273Z,1023.60
2019-01-06T10:43:04.257Z,1023.61
2019-01-06T10:44:04.231Z,1023.60
2019-01-06T10:45:04.214Z,1023.63
2019-01-06T10:46:04.189Z,1023.66
2019-01-06T10:47:04.174Z,1023.64
2019-01-06T10:48:04.149Z,1023.66
2019-01-06T10:49:04.122Z,1023.66
2019-01-06T10:50:04.105Z,1023.68
2019-01-06T10:51:04.077Z,1023.69
2019-01-06T10:52:04.061Z,1023.67
2019-01-06T10:53:04.045Z,1023.67
2019-01-06T10:54:04.011Z,1023.60
2019-01-06T10:55:03.994Z,1023.63
2019-01-06T10:56:03.973Z,1023.63
2019-01-06T10:57:03.953Z,1023.61
2019-01-06T10:58:03.926Z,1023.57
2019-01-06T10:59:04.983Z,1023.61
2019-01-06T11:00:03.885Z,1023.61
2019-01-06T11:01:03.863Z,1023.59
2019-01-06T11:02:03.840Z,1023.58
2019-01-06T11:03:03.824Z,1023.56
2019-01-06T11:04:03.799Z,1023.58
2019-01-06T11:05:03.782Z,1023.54
2019-01-06T11:06:03.755Z,1023.56
2019-01-06T11:07:03.736Z,1023.57
2019-01-06T11:08:03.718Z,1023.55
2019-01-06T11:09:03.694Z,1023.60
2019-01-06T11:10:03.673Z,1023.56
2019-01-06T11:11:03.652Z,1023.56
2019-01-06T11:12:03.630Z,1023.59
2019-01-06T11:13:03.619Z,1023.63
2019-01-06T11:14:03.591Z,1023.59
2019-01-06T11:15:03.572Z,1023.55
2019-01-06T11:16:03.549Z,1023.57
2019-01-06T11:17:03.525Z,1023.57
2019-01-06T11:18:03.511Z,1023.55
2019-01-06T11:19:03.488Z,1023.57
2019-01-06T11:20:03.477Z,1023.56
2019-01-06T11:21:03.448Z,1023.57
2019-01-06T11:22:03.422Z,1023.60
2019-01-06T11:23:03.400Z,1023.62
2019-01-06T11:24:03.378Z,1023.65
2019-01-06T11:25:03.357Z,1023.64
2019-01-06T11:26:03.336Z,1023.62
2019-01-06T11:27:03.318Z,1023.61
2019-01-06T11:28:03.297Z,1023.67
2019-01-06T11:29:03.278Z,1023.67
2019-01-06T11:30:03.256Z,1023.68
2019-01-06T11:31:03.249Z,1023.65
2019-01-06T11:32:03.216Z,1023.61
2019-01-06T11:33:03.195Z,1023.61
2019-01-06T11:34:03.172Z,1023.57
2019-01-06T11:35:03.156Z,1023.59
2019-01-06T11:36:03.137Z,1023.55
2019-01-06T11:37:03.108Z,1023.54
2019-01-06T11:38:03.088Z,1023.56
2019-01-06T11:39:03.084Z,1023.49
2019-01-06T11:40:03.048Z,1023.52
2019-01-06T11:41:07.879Z,1023.52
2019-01-06T11:42:03.004Z,1023.47
2019-01-06T11:43:02.992Z,1023.45
2019-01-06T11:44:02.967Z,1023.46
2019-01-06T11:45:02.951Z,1023.44
2019-01-06T11:46:02.984Z,1023.46
2019-01-06T11:47:02.906Z,1023.46
2019-01-06T11:48:02.884Z,1023.45
2019-01-06T11:49:02.860Z,1023.43
2019-01-06T11:50:02.839Z,1023.44
2019-01-06T11:51:02.820Z,1023.45
2019-01-06T11:52:02.800Z,1023.44
2019-01-06T11:53:02.774Z,1023.41
2019-01-06T11:54:02.754Z,1023.39
2019-01-06T11:55:02.733Z,1023.38
2019-01-06T11:56:02.714Z,1023.37
2019-01-06T11:57:02.695Z,1023.35
2019-01-06T11:58:02.671Z,1023.37
2019-01-06T11:59:02.653Z,1023.41
2019-01-06T12:00:02.630Z,1023.52
2019-01-06T12:01:02.612Z,1023.47
2019-01-06T12:02:02.593Z,1023.44
2019-01-06T12:03:02.570Z,1023.47
2019-01-06T12:04:02.548Z,1023.44
2019-01-06T12:05:02.529Z,1023.43